createdAt,value
2018-03-15T00:00:36.663Z,802.76
2018-03-15T00:01:36.664Z,802.75
2018-03-15T00:02:36.670Z,802.77
2018-03-15T00:03:36.681Z,802.84
2018-03-15T00:04:36.683Z,802.87
2018-03-15T00:05:36.688Z,802.90
2018-03-15T00:06:36.700Z,802.90
2018-03-15T00:07:36.700Z,802.90
2018-03-15T00:08:36.712Z,802.87
2018-03-15T00:09:36.720Z,802.86
2018-03-15T00:10:36.724Z,802.88
2018-03-15T00:11:36.724Z,802.89
2018-03-15T00:12:36.732Z,802.95
2018-03-15T00:13:36.738Z,802.99
2018-03-15T00:14:36.743Z,803.02
2018-03-15T00:15:36.750Z,803.04
2018-03-15T00:16:36.757Z,803.03
2018-03-15T00:17:36.770Z,803.10
2018-03-15T00:18:36.776Z,803.09
2018-03-15T00:19:36.780Z,803.09
2018-03-15T00:20:36.780Z,803.11
2018-03-15T00:21:36.793Z,803.18
2018-03-15T00:22:36.819Z,803.15
2018-03-15T00:23:36.800Z,803.13
2018-03-15T00:24:36.804Z,803.13
2018-03-15T00:25:36.816Z,803.11
2018-03-15T00:26:36.823Z,803.12
2018-03-15T00:27:36.829Z,803.07
2018-03-15T00:28:36.831Z,803.03
2018-03-15T00:29:36.841Z,803.06
2018-03-15T00:30:36.841Z,803.08
2018-03-15T00:31:36.854Z,803.05
2018-03-15T00:32:36.860Z,803.06
2018-03-15T00:33:36.866Z,803.08
2018-03-15T00:34:36.871Z,803.10
2018-03-15T00:35:36.878Z,803.06
2018-03-15T00:36:36.878Z,802.97
2018-03-15T00:37:36.893Z,802.93
2018-03-15T00:38:36.891Z,802.90
2018-03-15T00:39:36.916Z,802.86
2018-03-15T00:40:36.904Z,802.84
2018-03-15T00:41:36.909Z,802.83
2018-03-15T00:42:36.918Z,802.82
2018-03-15T00:43:36.928Z,802.80
2018-03-15T00:44:36.928Z,802.77
2018-03-15T00:45:36.933Z,802.73
2018-03-15T00:46:36.937Z,802.71
2018-03-15T00:47:36.945Z,802.68
2018-03-15T00:48:36.951Z,802.62
2018-03-15T00:49:36.957Z,802.60
2018-03-15T00:50:36.962Z,802.58
2018-03-15T00:51:36.966Z,802.58
2018-03-15T00:52:36.985Z,802.58
2018-03-15T00:53:37.005Z,802.62
2018-03-15T00:54:36.992Z,802.59
2018-03-15T00:55:36.996Z,802.60
2018-03-15T00:56:36.998Z,802.60
2018-03-15T00:57:37.009Z,802.63
2018-03-15T00:58:37.012Z,802.63
2018-03-15T00:59:37.020Z,802.63
2018-03-15T01:00:37.020Z,802.65
2018-03-15T01:01:37.034Z,802.65
2018-03-15T01:02:37.036Z,802.64
2018-03-15T01:03:37.038Z,802.68
2018-03-15T01:04:37.050Z,802.64
2018-03-15T01:05:37.056Z,802.68
2018-03-15T01:06:37.059Z,802.65
2018-03-15T01:07:37.067Z,802.65
2018-03-15T01:08:37.075Z,802.68
2018-03-15T01:09:37.074Z,802.62
2018-03-15T01:10:37.080Z,802.59
2018-03-15T01:11:37.091Z,802.59
2018-03-15T01:12:37.102Z,802.54
2018-03-15T01:13:37.098Z,802.54
2018-03-15T01:14:37.106Z,802.56
2018-03-15T01:15:37.109Z,802.50
2018-03-15T01:16:37.116Z,802.48
2018-03-15T01:17:37.121Z,802.46
2018-03-15T01:18:37.133Z,802.43
2018-03-15T01:19:37.134Z,802.45
2018-03-15T01:20:37.139Z,802.45
2018-03-15T01:21:37.156Z,802.50
2018-03-15T01:22:37.156Z,802.51
2018-03-15T01:23:37.157Z,802.49
2018-03-15T01:24:37.162Z,802.44
2018-03-15T01:25:37.169Z,802.39
2018-03-15T01:26:37.179Z,802.36
2018-03-15T01:27:37.186Z,802.33
2018-03-15T01:28:37.193Z,802.35
2018-03-15T01:29:37.193Z,802.36
2018-03-15T01:30:37.197Z,802.31
2018-03-15T01:31:37.210Z,802.31
2018-03-15T01:32:37.208Z,802.33
2018-03-15T01:33:37.219Z,802.34
2018-03-15T01:34:37.220Z,802.30
2018-03-15T01:35:37.231Z,802.29
2018-03-15T01:36:37.232Z,802.29
2018-03-15T01:37:37.239Z,802.25
2018-03-15T01:38:37.242Z,802.22
2018-03-15T01:39:37.250Z,802.25
2018-03-15T01:40:37.255Z,802.23
2018-03-15T01:41:37.267Z,802.24
2018-03-15T01:42:37.267Z,802.27
2018-03-15T01:43:37.283Z,802.27
2018-03-15T01:44:37.284Z,802.25
2018-03-15T01:45:37.286Z,802.25
2018-03-15T01:46:37.291Z,802.25
2018-03-15T01:47:37.302Z,802.31
2018-03-15T01:48:37.309Z,802.29
2018-03-15T01:49:37.315Z,802.32
2018-03-15T01:50:37.316Z,802.28
2018-03-15T01:51:37.326Z,802.27
2018-03-15T01:52:37.329Z,802.25
2018-03-15T01:53:37.334Z,802.18
2018-03-15T01:54:37.339Z,802.17
2018-03-15T01:55:37.344Z,802.19
2018-03-15T01:56:37.350Z,802.17
2018-03-15T01:57:37.363Z,802.19
2018-03-15T01:58:37.363Z,802.16
2018-03-15T01:59:37.369Z,802.11
2018-03-15T02:00:37.385Z,802.08
2018-03-15T02:01:37.386Z,802.06
2018-03-15T02:02:37.392Z,802.00
2018-03-15T02:03:37.393Z,801.98
2018-03-15T02:04:37.398Z,801.92
2018-03-15T02:05:37.410Z,801.99
2018-03-15T02:06:37.414Z,801.95
2018-03-15T02:07:37.421Z,802.00
2018-03-15T02:08:37.427Z,802.02
2018-03-15T02:09:37.432Z,802.02
2018-03-15T02:10:37.432Z,802.01
2018-03-15T02:11:37.445Z,801.97
2018-03-15T02:12:37.450Z,801.92
2018-03-15T02:13:37.453Z,801.94
2018-03-15T02:14:37.462Z,801.90
2018-03-15T02:15:37.469Z,801.95
2018-03-15T02:16:37.468Z,801.91
2018-03-15T02:17:37.475Z,801.90
2018-03-15T02:18:37.485Z,801.92
2018-03-15T02:19:37.493Z,801.88
2018-03-15T02:20:37.498Z,801.83
2018-03-15T02:21:37.505Z,801.82
2018-03-15T02:22:37.511Z,801.77
2018-03-15T02:23:37.509Z,801.75
2018-03-15T02:24:37.517Z,801.69
2018-03-15T02:25:37.521Z,801.73
2018-03-15T02:26:37.534Z,801.69
2018-03-15T02:27:37.539Z,801.64
2018-03-15T02:28:37.539Z,801.62
2018-03-15T02:29:37.545Z,801.62
2018-03-15T02:30:37.561Z,801.58
2018-03-15T02:31:37.559Z,801.56
2018-03-15T02:32:37.564Z,801.51
2018-03-15T02:33:37.570Z,801.46
2018-03-15T02:34:37.580Z,801.45
2018-03-15T02:35:37.586Z,801.45
2018-03-15T02:36:37.593Z,801.40
2018-03-15T02:37:37.593Z,801.40
2018-03-15T02:38:37.606Z,801.40
2018-03-15T02:39:37.604Z,801.38
2018-03-15T02:40:37.611Z,801.31
2018-03-15T02:41:37.622Z,801.33
2018-03-15T02:42:37.628Z,801.30
2018-03-15T02:43:37.628Z,801.30
2018-03-15T02:44:37.638Z,801.22
2018-03-15T02:45:37.642Z,801.20
2018-03-15T02:46:37.655Z,801.19
2018-03-15T02:47:37.656Z,801.13
2018-03-15T02:48:37.661Z,801.13
2018-03-15T02:49:37.665Z,801.16
2018-03-15T02:50:37.667Z,801.18
2018-03-15T02:51:37.679Z,801.15
2018-03-15T02:52:37.685Z,801.11
2018-03-15T02:53:37.686Z,801.12
2018-03-15T02:54:37.691Z,801.09
2018-03-15T02:55:37.703Z,801.09
2018-03-15T02:56:37.703Z,801.06
2018-03-15T02:57:37.714Z,801.06
2018-03-15T02:58:37.722Z,800.99
2018-03-15T02:59:37.725Z,800.95
2018-03-15T03:00:37.731Z,800.92
2018-03-15T03:01:37.732Z,800.96
2018-03-15T03:02:37.744Z,800.95
2018-03-15T03:03:37.743Z,800.95
2018-03-15T03:04:37.753Z,800.96
2018-03-15T03:05:37.755Z,800.95
2018-03-15T03:06:37.761Z,800.90
2018-03-15T03:07:37.767Z,800.89
2018-03-15T03:08:37.785Z,800.89
2018-03-15T03:09:37.784Z,800.90
2018-03-15T03:10:37.784Z,800.85
2018-03-15T03:11:37.789Z,800.82
2018-03-15T03:12:37.800Z,800.84
2018-03-15T03:13:37.802Z,800.79
2018-03-15T03:14:37.812Z,800.75
2018-03-15T03:15:37.813Z,800.76
2018-03-15T03:16:37.825Z,800.70
2018-03-15T03:17:37.825Z,800.68
2018-03-15T03:18:37.836Z,800.67
2018-03-15T03:19:37.842Z,800.71
2018-03-15T03:20:37.847Z,800.75
2018-03-15T03:21:37.852Z,800.72
2018-03-15T03:22:37.852Z,800.73
2018-03-15T03:23:37.863Z,800.74
2018-03-15T03:24:37.869Z,800.72
2018-03-15T03:25:37.871Z,800.71
2018-03-15T03:26:37.880Z,800.65
2018-03-15T03:27:37.882Z,800.66
2018-03-15T03:28:37.889Z,800.62
2018-03-15T03:29:37.900Z,800.58
2018-03-15T03:30:37.904Z,800.61
2018-03-15T03:31:37.911Z,800.59
2018-03-15T03:32:37.911Z,800.62
2018-03-15T03:33:37.919Z,800.63
2018-03-15T03:34:37.927Z,800.62
2018-03-15T03:35:37.927Z,800.62
2018-03-15T03:36:37.937Z,800.62
2018-03-15T03:37:37.940Z,800.63
2018-03-15T03:38:37.945Z,800.60
2018-03-15T03:39:37.958Z,800.60
2018-03-15T03:40:37.962Z,800.57
2018-03-15T03:41:37.962Z,800.60
2018-03-15T03:42:37.967Z,800.59
2018-03-15T03:43:37.976Z,800.55
2018-03-15T03:44:37.980Z,800.54
2018-03-15T03:45:37.987Z,800.53
2018-03-15T03:46:37.992Z,800.50
2018-03-15T03:47:38.004Z,800.48
2018-03-15T03:48:38.008Z,800.45
2018-03-15T03:49:38.014Z,800.47
2018-03-15T03:50:38.024Z,800.49
2018-03-15T03:51:38.020Z,800.48
2018-03-15T03:52:38.026Z,800.50
2018-03-15T03:53:38.040Z,800.53
2018-03-15T03:54:38.039Z,800.59
2018-03-15T03:55:38.049Z,800.63
2018-03-15T03:56:38.050Z,800.62
2018-03-15T03:57:38.056Z,800.65
2018-03-15T03:58:38.060Z,800.67
2018-03-15T03:59:38.066Z,800.65
2018-03-15T04:00:38.078Z,800.62
2018-03-15T04:01:38.080Z,800.63
2018-03-15T04:02:38.093Z,800.60
2018-03-15T04:03:38.097Z,800.66
2018-03-15T04:04:38.097Z,800.67
2018-03-15T04:05:38.103Z,800.66
2018-03-15T04:06:38.107Z,800.60
2018-03-15T04:07:38.119Z,800.56
2018-03-15T04:08:38.124Z,800.55
2018-03-15T04:09:38.131Z,800.53
2018-03-15T04:10:38.130Z,800.47
2018-03-15T04:11:38.141Z,800.44
2018-03-15T04:12:38.144Z,800.46
2018-03-15T04:13:38.153Z,800.44
2018-03-15T04:14:38.158Z,800.39
2018-03-15T04:15:38.166Z,800.41
2018-03-15T04:16:38.166Z,800.38
2018-03-15T04:17:38.174Z,800.33
2018-03-15T04:18:38.178Z,800.34
2018-03-15T04:19:38.189Z,800.33
2018-03-15T04:20:38.200Z,800.32
2018-03-15T04:21:38.195Z,800.34
2018-03-15T04:22:38.206Z,800.35
2018-03-15T04:23:38.212Z,800.35
2018-03-15T04:24:38.217Z,800.36
2018-03-15T04:25:38.224Z,800.37
2018-03-15T04:26:38.234Z,800.38
2018-03-15T04:27:38.234Z,800.41
2018-03-15T04:28:38.243Z,800.41
2018-03-15T04:29:38.249Z,800.42
2018-03-15T04:30:38.248Z,800.43
2018-03-15T04:31:38.259Z,800.45
2018-03-15T04:32:38.261Z,800.42
2018-03-15T04:33:38.271Z,800.43
2018-03-15T04:34:38.273Z,800.41
2018-03-15T04:35:38.283Z,800.42
2018-03-15T04:36:38.288Z,800.44
2018-03-15T04:37:38.293Z,800.41
2018-03-15T04:38:38.304Z,800.38
2018-03-15T04:39:38.306Z,800.36
2018-03-15T04:40:38.319Z,800.33
2018-03-15T04:41:38.318Z,800.34
2018-03-15T04:42:38.322Z,800.33
2018-03-15T04:43:38.322Z,800.29
2018-03-15T04:44:38.338Z,800.26
2018-03-15T04:45:38.336Z,800.22
2018-03-15T04:46:38.346Z,800.19
2018-03-15T04:47:38.406Z,800.19
2018-03-15T04:48:38.361Z,800.17
2018-03-15T04:49:38.360Z,800.16
2018-03-15T04:50:38.366Z,800.17
2018-03-15T04:51:38.376Z,800.15
2018-03-15T04:52:38.383Z,800.04
2018-03-15T04:53:38.383Z,800.02
2018-03-15T04:54:38.388Z,800.00
2018-03-15T04:55:38.395Z,799.94
2018-03-15T04:56:38.401Z,799.90
2018-03-15T04:57:38.407Z,799.86
2018-03-15T04:58:38.415Z,799.86
2018-03-15T04:59:38.422Z,799.86
2018-03-15T05:00:38.423Z,799.84
2018-03-15T05:01:38.430Z,799.89
2018-03-15T05:02:38.440Z,799.89
2018-03-15T05:03:38.442Z,799.93
2018-03-15T05:04:38.448Z,799.97
2018-03-15T05:05:38.454Z,799.99
2018-03-15T05:06:38.463Z,800.03
2018-03-15T05:07:38.470Z,800.07
2018-03-15T05:08:38.470Z,800.06
2018-03-15T05:09:38.484Z,800.08
2018-03-15T05:10:38.482Z,800.09
2018-03-15T05:11:38.497Z,800.04
2018-03-15T05:12:38.557Z,800.04
2018-03-15T05:13:38.508Z,799.98
2018-03-15T05:14:38.514Z,799.99
2018-03-15T05:15:38.518Z,799.91
2018-03-15T05:16:38.524Z,799.88
2018-03-15T05:17:38.525Z,799.90
2018-03-15T05:18:38.535Z,799.81
2018-03-15T05:19:38.542Z,799.79
2018-03-15T05:20:38.549Z,799.78
2018-03-15T05:21:38.550Z,799.75
2018-03-15T05:22:38.554Z,799.78
2018-03-15T05:23:38.565Z,799.71
2018-03-15T05:24:38.570Z,799.68
2018-03-15T05:25:38.581Z,799.68
2018-03-15T05:26:38.576Z,799.71
2018-03-15T05:27:38.588Z,799.72
2018-03-15T05:28:38.593Z,799.70
2018-03-15T05:29:38.595Z,799.67
2018-03-15T05:30:38.604Z,799.69
2018-03-15T05:31:38.610Z,799.68
2018-03-15T05:32:38.611Z,799.57
2018-03-15T05:33:38.622Z,799.55
2018-03-15T05:34:38.633Z,799.54
2018-03-15T05:35:38.633Z,799.48
2018-03-15T05:36:38.641Z,799.52
2018-03-15T05:37:38.641Z,799.52
2018-03-15T05:38:38.649Z,799.56
2018-03-15T05:39:38.657Z,799.55
2018-03-15T05:40:38.665Z,799.55
2018-03-15T05:41:38.665Z,799.56
2018-03-15T05:42:38.674Z,799.55
2018-03-15T05:43:38.675Z,799.52
2018-03-15T05:44:38.686Z,799.54
2018-03-15T05:45:38.692Z,799.52
2018-03-15T05:46:38.698Z,799.48
2018-03-15T05:47:38.703Z,799.51
2018-03-15T05:48:38.703Z,799.47
2018-03-15T05:49:38.716Z,799.47
2018-03-15T05:50:38.720Z,799.52
2018-03-15T05:51:38.721Z,799.54
2018-03-15T05:52:38.726Z,799.48
2018-03-15T05:53:38.739Z,799.48
2018-03-15T05:54:38.740Z,799.47
2018-03-15T05:55:38.750Z,799.43
2018-03-15T05:56:38.749Z,799.45
2018-03-15T05:57:38.762Z,799.43
2018-03-15T05:58:38.784Z,799.42
2018-03-15T05:59:38.772Z,799.41
2018-03-15T06:00:38.783Z,799.42
2018-03-15T06:01:38.787Z,799.40
2018-03-15T06:02:38.785Z,799.40
2018-03-15T06:03:38.796Z,799.37
2018-03-15T06:04:38.803Z,799.32
2018-03-15T06:05:38.802Z,799.38
2018-03-15T06:06:38.807Z,799.41
2018-03-15T06:07:38.820Z,799.39
2018-03-15T06:08:38.819Z,799.38
2018-03-15T06:09:38.828Z,799.38
2018-03-15T06:10:38.830Z,799.36
2018-03-15T06:11:38.836Z,799.34
2018-03-15T06:12:38.847Z,799.32
2018-03-15T06:13:38.855Z,799.38
2018-03-15T06:14:38.853Z,799.39
2018-03-15T06:15:38.859Z,799.43
2018-03-15T06:16:38.873Z,799.40
2018-03-15T06:17:38.878Z,799.41
2018-03-15T06:18:38.876Z,799.40
2018-03-15T06:19:38.893Z,799.34
2018-03-15T06:20:38.891Z,799.32
2018-03-15T06:21:38.901Z,799.31
2018-03-15T06:22:38.904Z,799.25
2018-03-15T06:23:38.912Z,799.29
2018-03-15T06:24:38.911Z,799.25
2018-03-15T06:25:38.925Z,799.25
2018-03-15T06:26:38.928Z,799.26
2018-03-15T06:27:38.939Z,799.22
2018-03-15T06:28:38.935Z,799.19
2018-03-15T06:29:38.940Z,799.17
2018-03-15T06:30:38.946Z,799.17
2018-03-15T06:31:38.954Z,799.19
2018-03-15T06:32:38.959Z,799.18
2018-03-15T06:33:38.971Z,799.16
2018-03-15T06:34:38.976Z,799.13
2018-03-15T06:35:38.983Z,799.12
2018-03-15T06:36:38.996Z,799.13
2018-03-15T06:37:38.995Z,799.10
2018-03-15T06:38:38.995Z,799.11
2018-03-15T06:39:39.009Z,799.11
2018-03-15T06:40:39.007Z,799.06
2018-03-15T06:41:39.014Z,799.04
2018-03-15T06:42:39.027Z,798.96
2018-03-15T06:43:39.029Z,798.90
2018-03-15T06:44:39.046Z,798.90
2018-03-15T06:45:39.038Z,798.91
2018-03-15T06:46:39.043Z,798.97
2018-03-15T06:47:39.056Z,798.98
2018-03-15T06:48:39.058Z,798.96
2018-03-15T06:49:39.065Z,798.99
2018-03-15T06:50:39.069Z,798.94
2018-03-15T06:51:39.075Z,798.96
2018-03-15T06:52:39.087Z,798.96
2018-03-15T06:53:39.094Z,798.95
2018-03-15T06:54:39.098Z,799.01
2018-03-15T06:55:39.105Z,798.97
2018-03-15T06:56:39.108Z,798.95
2018-03-15T06:57:39.118Z,798.98
2018-03-15T06:58:39.125Z,798.98
2018-03-15T06:59:39.131Z,798.99
2018-03-15T07:00:39.137Z,798.99
2018-03-15T07:01:39.138Z,799.00
2018-03-15T07:02:39.143Z,798.98
2018-03-15T07:03:39.155Z,798.96
2018-03-15T07:04:39.162Z,798.91
2018-03-15T07:05:39.169Z,798.89
2018-03-15T07:06:39.174Z,798.91
2018-03-15T07:07:39.204Z,798.95
2018-03-15T07:08:39.184Z,798.95
2018-03-15T07:09:39.189Z,798.97
2018-03-15T07:10:39.200Z,798.92
2018-03-15T07:11:39.201Z,798.94
2018-03-15T07:12:39.208Z,798.91
2018-03-15T07:13:39.214Z,798.90
2018-03-15T07:14:39.222Z,798.98
2018-03-15T07:15:39.226Z,798.96
2018-03-15T07:16:39.277Z,798.97
2018-03-15T07:17:39.242Z,799.01
2018-03-15T07:18:39.246Z,798.99
2018-03-15T07:19:39.252Z,798.98
2018-03-15T07:20:39.261Z,798.91
2018-03-15T07:21:39.267Z,798.86
2018-03-15T07:22:39.281Z,798.86
2018-03-15T07:23:39.285Z,798.86
2018-03-15T07:24:39.293Z,798.85
2018-03-15T07:25:39.306Z,798.86
2018-03-15T07:26:39.306Z,798.87
2018-03-15T07:27:39.313Z,798.86
2018-03-15T07:28:39.320Z,798.82
2018-03-15T07:29:39.320Z,798.83
2018-03-15T07:30:39.327Z,798.76
2018-03-15T07:31:39.334Z,798.78
2018-03-15T07:32:39.343Z,798.74
2018-03-15T07:33:39.352Z,798.75
2018-03-15T07:34:39.354Z,798.67
2018-03-15T07:35:39.362Z,798.66
2018-03-15T07:36:39.368Z,798.63
2018-03-15T07:37:39.375Z,798.67
2018-03-15T07:38:39.389Z,798.61
2018-03-15T07:39:39.394Z,798.58
2018-03-15T07:40:39.401Z,798.54
2018-03-15T07:41:39.404Z,798.46
2018-03-15T07:42:39.416Z,798.52
2018-03-15T07:43:39.424Z,798.43
2018-03-15T07:44:39.423Z,798.45
2018-03-15T07:45:39.432Z,798.44
2018-03-15T07:46:39.453Z,798.46
2018-03-15T07:47:39.443Z,798.45
2018-03-15T07:48:39.493Z,798.44
2018-03-15T07:49:39.459Z,798.44
2018-03-15T07:50:39.472Z,798.45
2018-03-15T07:51:39.478Z,798.47
2018-03-15T07:52:39.485Z,798.50
2018-03-15T07:53:39.493Z,798.53
2018-03-15T07:54:39.501Z,798.50
2018-03-15T07:55:39.505Z,798.46
2018-03-15T07:56:39.515Z,798.49
2018-03-15T07:57:39.521Z,798.53
2018-03-15T07:58:39.527Z,798.53
2018-03-15T07:59:39.529Z,798.52
2018-03-15T08:00:39.537Z,798.46
2018-03-15T08:01:39.551Z,798.51
2018-03-15T08:02:39.550Z,798.53
2018-03-15T08:03:39.557Z,798.55
2018-03-15T08:04:39.569Z,798.57
2018-03-15T08:05:39.579Z,798.58
2018-03-15T08:06:39.585Z,798.58
2018-03-15T08:07:39.595Z,798.59
2018-03-15T08:08:39.595Z,798.60
2018-03-15T08:09:39.602Z,798.58
2018-03-15T08:10:39.617Z,798.64
2018-03-15T08:11:39.623Z,798.64
2018-03-15T08:12:39.626Z,798.63
2018-03-15T08:13:39.633Z,798.57
2018-03-15T08:14:39.640Z,798.61
2018-03-15T08:15:39.697Z,798.59
2018-03-15T08:16:39.655Z,798.61
2018-03-15T08:17:39.669Z,798.61
2018-03-15T08:18:39.669Z,798.63
2018-03-15T08:19:39.681Z,798.59
2018-03-15T08:20:39.705Z,798.61
2018-03-15T08:21:39.698Z,798.62
2018-03-15T08:22:39.750Z,798.65
2018-03-15T08:23:39.708Z,798.68
2018-03-15T08:24:39.725Z,798.66
2018-03-15T08:25:39.729Z,798.66
2018-03-15T08:26:39.738Z,798.64
2018-03-15T08:27:39.745Z,798.65
2018-03-15T08:28:39.747Z,798.69
2018-03-15T08:29:39.762Z,798.72
2018-03-15T08:30:39.763Z,798.69
2018-03-15T08:31:39.775Z,798.72
2018-03-15T08:32:39.777Z,798.70
2018-03-15T08:33:39.787Z,798.73
2018-03-15T08:34:39.794Z,798.70
2018-03-15T08:35:39.807Z,798.70
2018-03-15T08:36:39.810Z,798.70
2018-03-15T08:37:39.817Z,798.65
2018-03-15T08:38:39.830Z,798.69
2018-03-15T08:39:39.880Z,798.66
2018-03-15T08:40:39.855Z,798.67
2018-03-15T08:41:39.847Z,798.71
2018-03-15T08:42:39.862Z,798.71
2018-03-15T08:43:39.868Z,798.71
2018-03-15T08:44:39.871Z,798.64
2018-03-15T08:45:39.880Z,798.65
2018-03-15T08:46:39.886Z,798.63
2018-03-15T08:47:39.902Z,798.63
2018-03-15T08:48:39.904Z,798.61
2018-03-15T08:49:39.911Z,798.62
2018-03-15T08:50:39.920Z,798.59
2018-03-15T08:51:39.940Z,798.57
2018-03-15T08:52:39.941Z,798.59
2018-03-15T08:53:39.949Z,798.58
2018-03-15T08:54:39.954Z,798.56
2018-03-15T08:55:40.054Z,798.54
2018-03-15T08:56:39.974Z,798.53
2018-03-15T08:57:40.002Z,798.49
2018-03-15T08:58:39.984Z,798.44
2018-03-15T08:59:39.998Z,798.49
2018-03-15T09:00:40.006Z,798.46
2018-03-15T09:01:40.014Z,798.44
2018-03-15T09:02:40.021Z,798.45
2018-03-15T09:03:40.031Z,798.43
2018-03-15T09:04:40.413Z,798.41
2018-03-15T09:05:40.048Z,798.40
2018-03-15T09:06:40.059Z,798.44
2018-03-15T09:07:40.067Z,798.33
2018-03-15T09:08:40.082Z,798.32
2018-03-15T09:09:40.080Z,798.32
2018-03-15T09:10:40.082Z,798.34
2018-03-15T09:11:40.090Z,798.37
2018-03-15T09:12:40.097Z,798.32
2018-03-15T09:13:40.106Z,798.31
2018-03-15T09:14:40.115Z,798.32
2018-03-15T09:15:40.128Z,798.32
2018-03-15T09:16:40.137Z,798.29
2018-03-15T09:17:40.140Z,798.31
2018-03-15T09:18:40.153Z,798.28
2018-03-15T09:19:40.156Z,798.25
2018-03-15T09:20:40.177Z,798.23
2018-03-15T09:21:40.201Z,798.14
2018-03-15T09:22:40.186Z,798.05
2018-03-15T09:23:40.213Z,798.04
2018-03-15T09:24:40.202Z,798.01
2018-03-15T09:25:40.207Z,798.00
2018-03-15T09:26:40.216Z,798.00
2018-03-15T09:27:40.230Z,797.97
2018-03-15T09:28:40.232Z,797.97
2018-03-15T09:29:40.241Z,797.91
2018-03-15T09:30:40.248Z,797.89
2018-03-15T09:31:40.257Z,797.86
2018-03-15T09:32:40.273Z,797.85
2018-03-15T09:33:40.275Z,797.83
2018-03-15T09:34:40.288Z,797.81
2018-03-15T09:35:40.298Z,797.74
2018-03-15T09:36:40.306Z,797.70
2018-03-15T09:37:40.310Z,797.69
2018-03-15T09:38:40.324Z,797.65
2018-03-15T09:39:40.332Z,797.65
2018-03-15T09:40:40.397Z,797.62
2018-03-15T09:41:40.342Z,797.63
2018-03-15T09:42:40.357Z,797.59
2018-03-15T09:43:40.361Z,797.61
2018-03-15T09:44:40.374Z,797.61
2018-03-15T09:45:40.384Z,797.58
2018-03-15T09:46:40.385Z,797.58
2018-03-15T09:47:40.400Z,797.50
2018-03-15T09:48:40.402Z,797.55
2018-03-15T09:49:40.413Z,797.54
2018-03-15T09:50:40.419Z,797.57
2018-03-15T09:51:40.429Z,797.54
2018-03-15T09:52:40.440Z,797.47
2018-03-15T09:53:40.458Z,797.40
2018-03-15T09:54:40.461Z,797.36
2018-03-15T09:55:40.466Z,797.27
2018-03-15T09:56:40.480Z,797.31
2018-03-15T09:57:40.481Z,797.39
2018-03-15T09:58:40.488Z,797.36
2018-03-15T09:59:40.503Z,797.38
2018-03-15T10:00:40.514Z,797.37
2018-03-15T10:01:40.516Z,797.31
2018-03-15T10:02:40.524Z,797.26
2018-03-15T10:03:40.536Z,797.26
2018-03-15T10:04:40.544Z,797.21
2018-03-15T10:05:40.610Z,797.08
2018-03-15T10:06:40.573Z,797.06
2018-03-15T10:07:40.568Z,797.03
2018-03-15T10:08:40.579Z,797.01
2018-03-15T10:09:40.587Z,797.03
2018-03-15T10:10:40.606Z,797.02
2018-03-15T10:11:40.606Z,797.01
2018-03-15T10:12:40.621Z,796.97
2018-03-15T10:13:40.624Z,796.95
2018-03-15T10:14:40.639Z,796.95
2018-03-15T10:15:40.643Z,796.90
2018-03-15T10:16:40.658Z,796.87
2018-03-15T10:17:40.666Z,796.83
2018-03-15T10:18:40.669Z,796.86
2018-03-15T10:19:40.680Z,796.84
2018-03-15T10:20:40.688Z,796.89
2018-03-15T10:21:40.698Z,796.85
2018-03-15T10:22:40.712Z,796.84
2018-03-15T10:23:40.719Z,796.92
2018-03-15T10:24:40.733Z,796.92
2018-03-15T10:25:40.745Z,796.85
2018-03-15T10:26:40.748Z,796.83
2018-03-15T10:27:40.757Z,796.86
2018-03-15T10:28:40.768Z,796.90
2018-03-15T10:29:40.770Z,796.79
2018-03-15T10:30:40.779Z,796.80
2018-03-15T10:31:40.795Z,796.76
2018-03-15T10:32:40.798Z,796.70
2018-03-15T10:33:40.814Z,796.70
2018-03-15T10:34:40.824Z,796.73
2018-03-15T10:35:40.832Z,796.68
2018-03-15T10:36:40.838Z,796.64
2018-03-15T10:37:40.847Z,796.64
2018-03-15T10:38:40.860Z,796.73
2018-03-15T10:39:40.864Z,796.67
2018-03-15T10:40:40.874Z,796.69
2018-03-15T10:41:40.884Z,796.67
2018-03-15T10:42:40.893Z,796.64
2018-03-15T10:43:40.910Z,796.62
2018-03-15T10:44:40.915Z,796.67
2018-03-15T10:45:40.927Z,796.70
2018-03-15T10:46:40.938Z,796.67
2018-03-15T10:47:40.949Z,796.66
2018-03-15T10:48:40.953Z,796.67
2018-03-15T10:49:40.962Z,796.64
2018-03-15T10:50:40.973Z,796.68
2018-03-15T10:51:40.982Z,796.66
2018-03-15T10:52:40.992Z,796.64
2018-03-15T10:53:41.008Z,796.61
2018-03-15T10:54:41.019Z,796.61
2018-03-15T10:55:41.022Z,796.59
2018-03-15T10:56:41.033Z,796.60
2018-03-15T10:57:41.042Z,796.63
2018-03-15T10:58:41.051Z,796.59
2018-03-15T10:59:41.067Z,796.55
2018-03-15T11:00:41.078Z,796.54
2018-03-15T11:01:41.082Z,796.54
2018-03-15T11:02:41.092Z,796.49
2018-03-15T11:03:41.104Z,796.48
2018-03-15T11:04:41.118Z,796.46
2018-03-15T11:05:41.126Z,796.48
2018-03-15T11:06:41.138Z,796.52
2018-03-15T11:07:41.143Z,796.55
2018-03-15T11:08:41.166Z,796.53
2018-03-15T11:09:41.165Z,796.54
2018-03-15T11:10:41.179Z,796.57
2018-03-15T11:11:41.183Z,796.62
2018-03-15T11:12:41.193Z,796.57
2018-03-15T11:13:41.211Z,796.55
2018-03-15T11:14:41.224Z,796.50
2018-03-15T11:15:41.232Z,796.47
2018-03-15T11:16:41.244Z,796.45
2018-03-15T11:17:41.252Z,796.52
2018-03-15T11:18:41.262Z,796.50
2018-03-15T11:19:41.269Z,796.57
2018-03-15T11:20:41.287Z,796.53
2018-03-15T11:21:41.291Z,796.49
2018-03-15T11:22:41.307Z,796.46
2018-03-15T11:23:41.401Z,796.49
2018-03-15T11:24:41.326Z,796.43
2018-03-15T11:25:41.342Z,796.43
2018-03-15T11:26:41.345Z,796.46
2018-03-15T11:27:41.361Z,796.50
2018-03-15T11:28:41.369Z,796.50
2018-03-15T11:29:41.385Z,796.50
2018-03-15T11:30:41.397Z,796.57
2018-03-15T11:31:41.410Z,796.58
2018-03-15T11:32:41.416Z,796.53
2018-03-15T11:33:41.428Z,796.51
2018-03-15T11:34:41.444Z,796.56
2018-03-15T11:35:41.451Z,796.57
2018-03-15T11:36:41.467Z,796.57
2018-03-15T11:37:41.481Z,796.49
2018-03-15T11:38:41.491Z,796.47
2018-03-15T11:39:41.498Z,796.42
2018-03-15T11:40:41.517Z,796.38
2018-03-15T11:41:41.527Z,796.40
2018-03-15T11:42:41.534Z,796.39
2018-03-15T11:43:41.594Z,796.44
2018-03-15T11:44:41.558Z,796.42
2018-03-15T11:45:41.574Z,796.47
2018-03-15T11:46:41.588Z,796.45
2018-03-15T11:47:41.601Z,796.53
2018-03-15T11:48:41.607Z,796.48
2018-03-15T11:49:41.625Z,796.49
2018-03-15T11:50:41.685Z,796.45
2018-03-15T11:51:41.647Z,796.43
2018-03-15T11:52:41.658Z,796.44
2018-03-15T11:53:41.668Z,796.49
2018-03-15T11:54:41.685Z,796.46
2018-03-15T11:55:41.695Z,796.41
2018-03-15T11:56:41.708Z,796.36
2018-03-15T11:57:41.718Z,796.38
2018-03-15T11:58:41.731Z,796.36
2018-03-15T11:59:41.746Z,796.38
2018-03-15T12:00:41.793Z,796.38
2018-03-15T12:01:41.841Z,796.41
2018-03-15T12:02:41.775Z,796.43
2018-03-15T12:03:41.795Z,796.37
2018-03-15T12:04:41.807Z,796.34
2018-03-15T12:05:41.820Z,796.33
2018-03-15T12:06:41.829Z,796.37
2018-03-15T12:07:41.861Z,796.39
2018-03-15T12:08:41.858Z,796.43
2018-03-15T12:09:41.868Z,796.36
2018-03-15T12:10:41.875Z,796.32
2018-03-15T12:11:41.888Z,796.30
2018-03-15T12:12:41.901Z,796.21
2018-03-15T12:13:41.913Z,796.24
2018-03-15T12:14:41.930Z,796.23
2018-03-15T12:15:41.942Z,796.24
2018-03-15T12:16:41.948Z,796.25
2018-03-15T12:17:41.968Z,796.23
2018-03-15T12:18:41.984Z,796.23
2018-03-15T12:19:41.991Z,796.29
2018-03-15T12:20:42.004Z,796.28
2018-03-15T12:21:42.016Z,796.22
2018-03-15T12:22:42.022Z,796.25
2018-03-15T12:23:42.038Z,796.21
2018-03-15T12:24:42.047Z,796.16
2018-03-15T12:25:42.065Z,796.15
2018-03-15T12:26:42.073Z,796.13
2018-03-15T12:27:42.092Z,796.07
2018-03-15T12:28:42.098Z,796.11